sensor_id;sensor_type;location;lat;lon;timestamp;P1;durP1;ratioP1;P2;durP2;ratioP2
29814;SDS011;16708;50.426;7.664;2023-03-01T00:02:51;21.30;;;9.00;;
29814;SDS011;16708;50.426;7.664;2023-03-01T00:07:46;19.30;;;9.00;;
29814;SDS011;16708;50.426;7.664;2023-03-01T00:12:40;18.60;;;7.80;;
29814;SDS011;16708;50.426;7.664;2023-03-01T00:17:34;20.10;;;9.30;;
29814;SDS011;16708;50.426;7.664;2023-03-01T00:22:29;18.40;;;8.60;;
29814;SDS011;16708;50.426;7.664;2023-03-01T00:27:23;17.40;;;8.50;;
29814;SDS011;16708;50.426;7.664;2023-03-01T00:32:16;16.20;;;8.40;;
29814;SDS011;16708;50.426;7.664;2023-03-01T00:37:10;18.80;;;8.50;;
29814;SDS011;16708;50.426;7.664;2023-03-01T00:42:04;18.80;;;8.50;;
29814;SDS011;16708;50.426;7.664;2023-03-01T00:46:58;17.20;;;8.60;;
29814;SDS011;16708;50.426;7.664;2023-03-01T00:51:51;20.80;;;8.10;;
29814;SDS011;16708;50.426;7.664;2023-03-01T00:56:45;20.20;;;8.50;;
29814;SDS011;16708;50.426;7.664;2023-03-01T01:01:39;18.60;;;8.90;;
29814;SDS011;16708;50.426;7.664;2023-03-01T01:06:32;16.70;;;8.10;;
29814;SDS011;16708;50.426;7.664;2023-03-01T01:11:27;20.40;;;8.80;;
29814;SDS011;16708;50.426;7.664;2023-03-01T01:16:19;22.10;;;8.70;;
29814;SDS011;16708;50.426;7.664;2023-03-01T01:21:12;18.50;;;8.30;;
29814;SDS011;16708;50.426;7.664;2023-03-01T01:26:06;19.90;;;8.30;;
29814;SDS011;16708;50.426;7.664;2023-03-01T01:30:59;22.60;;;9.10;;
29814;SDS011;16708;50.426;7.664;2023-03-01T01:35:52;21.80;;;8.60;;
29814;SDS011;16708;50.426;7.664;2023-03-01T01:45:39;22.40;;;9.10;;
29814;SDS011;16708;50.426;7.664;2023-03-01T01:50:33;21.10;;;9.70;;
29814;SDS011;16708;50.426;7.664;2023-03-01T01:55:27;26.20;;;10.30;;
29814;SDS011;16708;50.426;7.664;2023-03-01T02:00:21;21.60;;;10.10;;
29814;SDS011;16708;50.426;7.664;2023-03-01T02:05:14;19.40;;;9.20;;
29814;SDS011;16708;50.426;7.664;2023-03-01T02:10:09;23.10;;;9.70;;
29814;SDS011;16708;50.426;7.664;2023-03-01T02:15:03;21.30;;;9.40;;
29814;SDS011;16708;50.426;7.664;2023-03-01T02:19:57;23.90;;;9.60;;
29814;SDS011;16708;50.426;7.664;2023-03-01T02:29:42;23.70;;;10.40;;
29814;SDS011;16708;50.426;7.664;2023-03-01T02:34:37;24.70;;;10.10;;
29814;SDS011;16708;50.426;7.664;2023-03-01T02:39:30;24.50;;;11.10;;
29814;SDS011;16708;50.426;7.664;2023-03-01T02:44:24;21.80;;;10.00;;
29814;SDS011;16708;50.426;7.664;2023-03-01T02:49:18;27.70;;;11.30;;
29814;SDS011;16708;50.426;7.664;2023-03-01T02:54:12;23.50;;;10.10;;
29814;SDS011;16708;50.426;7.664;2023-03-01T02:59:07;26.90;;;10.60;;
29814;SDS011;16708;50.426;7.664;2023-03-01T03:04:06;24.80;;;10.90;;
29814;SDS011;16708;50.426;7.664;2023-03-01T03:08:55;26.80;;;11.10;;
29814;SDS011;16708;50.426;7.664;2023-03-01T03:13:49;26.00;;;11.00;;
29814;SDS011;16708;50.426;7.664;2023-03-01T03:18:43;26.50;;;11.30;;
29814;SDS011;16708;50.426;7.664;2023-03-01T03:23:35;24.20;;;10.40;;
29814;SDS011;16708;50.426;7.664;2023-03-01T03:28:29;23.10;;;10.50;;
29814;SDS011;16708;50.426;7.664;2023-03-01T03:33:23;24.90;;;11.00;;
29814;SDS011;16708;50.426;7.664;2023-03-01T03:38:16;24.00;;;11.00;;
29814;SDS011;16708;50.426;7.664;2023-03-01T03:43:10;24.10;;;11.10;;
29814;SDS011;16708;50.426;7.664;2023-03-01T03:48:03;25.90;;;10.80;;
29814;SDS011;16708;50.426;7.664;2023-03-01T03:52:58;25.60;;;10.30;;
29814;SDS011;16708;50.426;7.664;2023-03-01T03:57:52;25.60;;;10.50;;
29814;SDS011;16708;50.426;7.664;2023-03-01T04:02:43;28.20;;;11.20;;
29814;SDS011;16708;50.426;7.664;2023-03-01T04:07:38;28.90;;;11.50;;
29814;SDS011;16708;50.426;7.664;2023-03-01T04:12:31;28.80;;;11.70;;
29814;SDS011;16708;50.426;7.664;2023-03-01T04:17:25;24.30;;;10.70;;
29814;SDS011;16708;50.426;7.664;2023-03-01T04:22:19;23.50;;;10.80;;
29814;SDS011;16708;50.426;7.664;2023-03-01T04:27:13;26.60;;;10.80;;
29814;SDS011;16708;50.426;7.664;2023-03-01T04:32:07;26.60;;;11.30;;
29814;SDS011;16708;50.426;7.664;2023-03-01T04:37:01;25.60;;;10.70;;
29814;SDS011;16708;50.426;7.664;2023-03-01T04:41:55;25.60;;;10.90;;
29814;SDS011;16708;50.426;7.664;2023-03-01T04:46:48;28.70;;;11.20;;
29814;SDS011;16708;50.426;7.664;2023-03-01T04:51:43;28.80;;;12.00;;
29814;SDS011;16708;50.426;7.664;2023-03-01T04:56:37;31.00;;;12.30;;
29814;SDS011;16708;50.426;7.664;2023-03-01T05:01:31;26.50;;;11.00;;
29814;SDS011;16708;50.426;7.664;2023-03-01T05:06:26;30.50;;;11.90;;
29814;SDS011;16708;50.426;7.664;2023-03-01T05:11:20;28.00;;;11.50;;
29814;SDS011;16708;50.426;7.664;2023-03-01T05:16:17;28.40;;;11.90;;
29814;SDS011;16708;50.426;7.664;2023-03-01T05:21:07;29.30;;;11.10;;
29814;SDS011;16708;50.426;7.664;2023-03-01T05:26:01;29.90;;;12.20;;
29814;SDS011;16708;50.426;7.664;2023-03-01T05:30:55;34.70;;;12.60;;
29814;SDS011;16708;50.426;7.664;2023-03-01T05:35:49;35.10;;;13.40;;
29814;SDS011;16708;50.426;7.664;2023-03-01T05:40:43;41.50;;;14.40;;
29814;SDS011;16708;50.426;7.664;2023-03-01T05:45:37;36.80;;;12.90;;
29814;SDS011;16708;50.426;7.664;2023-03-01T05:50:31;31.90;;;12.80;;
29814;SDS011;16708;50.426;7.664;2023-03-01T05:55:25;38.10;;;14.60;;
29814;SDS011;16708;50.426;7.664;2023-03-01T06:00:19;32.10;;;12.40;;
29814;SDS011;16708;50.426;7.664;2023-03-01T06:05:13;34.40;;;13.60;;
29814;SDS011;16708;50.426;7.664;2023-03-01T06:10:07;32.90;;;13.10;;
29814;SDS011;16708;50.426;7.664;2023-03-01T06:15:02;34.20;;;14.30;;
29814;SDS011;16708;50.426;7.664;2023-03-01T06:19:56;34.10;;;13.60;;
29814;SDS011;16708;50.426;7.664;2023-03-01T06:24:50;33.90;;;14.00;;
29814;SDS011;16708;50.426;7.664;2023-03-01T06:29:45;38.30;;;14.70;;
29814;SDS011;16708;50.426;7.664;2023-03-01T06:34:39;36.20;;;14.70;;
29814;SDS011;16708;50.426;7.664;2023-03-01T06:39:33;39.70;;;14.50;;
29814;SDS011;16708;50.426;7.664;2023-03-01T06:44:27;48.10;;;17.10;;
29814;SDS011;16708;50.426;7.664;2023-03-01T06:49:22;41.10;;;15.90;;
29814;SDS011;16708;50.426;7.664;2023-03-01T06:54:16;34.60;;;14.30;;
29814;SDS011;16708;50.426;7.664;2023-03-01T06:59:10;37.30;;;15.50;;
29814;SDS011;16708;50.426;7.664;2023-03-01T07:04:04;42.20;;;15.90;;
29814;SDS011;16708;50.426;7.664;2023-03-01T07:08:58;35.20;;;14.10;;
29814;SDS011;16708;50.426;7.664;2023-03-01T07:13:52;37.50;;;14.30;;
29814;SDS011;16708;50.426;7.664;2023-03-01T07:18:47;44.80;;;15.80;;
29814;SDS011;16708;50.426;7.664;2023-03-01T07:23:41;38.80;;;15.00;;
29814;SDS011;16708;50.426;7.664;2023-03-01T07:28:35;39.80;;;14.60;;
29814;SDS011;16708;50.426;7.664;2023-03-01T07:33:30;41.50;;;13.70;;
29814;SDS011;16708;50.426;7.664;2023-03-01T07:38:24;41.70;;;14.30;;
29814;SDS011;16708;50.426;7.664;2023-03-01T07:43:19;41.10;;;14.20;;
29814;SDS011;16708;50.426;7.664;2023-03-01T07:48:12;32.50;;;12.30;;
29814;SDS011;16708;50.426;7.664;2023-03-01T07:53:07;36.30;;;13.10;;
29814;SDS011;16708;50.426;7.664;2023-03-01T07:58:00;28.80;;;11.60;;
29814;SDS011;16708;50.426;7.664;2023-03-01T08:02:55;29.50;;;12.60;;
29814;SDS011;16708;50.426;7.664;2023-03-01T08:07:49;30.40;;;12.50;;
29814;SDS011;16708;50.426;7.664;2023-03-01T08:12:43;35.00;;;13.10;;
29814;SDS011;16708;50.426;7.664;2023-03-01T08:17:37;31.10;;;12.80;;
29814;SDS011;16708;50.426;7.664;2023-03-01T08:22:32;30.10;;;12.00;;
29814;SDS011;16708;50.426;7.664;2023-03-01T08:27:24;33.40;;;12.30;;
29814;SDS011;16708;50.426;7.664;2023-03-01T08:32:19;34.10;;;12.40;;
29814;SDS011;16708;50.426;7.664;2023-03-01T08:37:13;23.90;;;10.70;;
29814;SDS011;16708;50.426;7.664;2023-03-01T08:42:07;19.50;;;10.20;;
29814;SDS011;16708;50.426;7.664;2023-03-01T08:47:02;21.80;;;10.40;;
29814;SDS011;16708;50.426;7.664;2023-03-01T08:51:56;19.60;;;9.90;;
29814;SDS011;16708;50.426;7.664;2023-03-01T08:56:50;22.10;;;10.70;;
29814;SDS011;16708;50.426;7.664;2023-03-01T09:01:43;19.40;;;9.90;;
29814;SDS011;16708;50.426;7.664;2023-03-01T09:06:36;24.10;;;10.30;;
29814;SDS011;16708;50.426;7.664;2023-03-01T09:11:31;21.40;;;9.60;;
29814;SDS011;16708;50.426;7.664;2023-03-01T09:16:27;17.70;;;9.20;;
29814;SDS011;16708;50.426;7.664;2023-03-01T09:21:23;17.90;;;8.90;;
29814;SDS011;16708;50.426;7.664;2023-03-01T09:26:18;17.10;;;8.90;;
29814;SDS011;16708;50.426;7.664;2023-03-01T09:31:12;20.50;;;8.90;;
29814;SDS011;16708;50.426;7.664;2023-03-01T09:36:07;15.00;;;8.30;;
29814;SDS011;16708;50.426;7.664;2023-03-01T09:41:02;15.00;;;8.50;;
29814;SDS011;16708;50.426;7.664;2023-03-01T09:45:56;16.30;;;9.10;;
29814;SDS011;16708;50.426;7.664;2023-03-01T09:50:51;15.60;;;8.90;;
29814;SDS011;16708;50.426;7.664;2023-03-01T10:05:34;15.70;;;8.50;;
29814;SDS011;16708;50.426;7.664;2023-03-01T10:10:29;17.20;;;9.10;;
29814;SDS011;16708;50.426;7.664;2023-03-01T10:20:18;15.80;;;8.70;;
29814;SDS011;16708;50.426;7.664;2023-03-01T10:25:12;17.20;;;8.60;;
29814;SDS011;16708;50.426;7.664;2023-03-01T10:30:07;13.30;;;8.30;;
29814;SDS011;16708;50.426;7.664;2023-03-01T10:35:02;14.90;;;8.10;;
29814;SDS011;16708;50.426;7.664;2023-03-01T10:39:56;14.70;;;8.40;;
29814;SDS011;16708;50.426;7.664;2023-03-01T10:49:45;12.80;;;8.60;;
29814;SDS011;16708;50.426;7.664;2023-03-01T10:54:40;12.40;;;8.00;;
29814;SDS011;16708;50.426;7.664;2023-03-01T11:04:29;13.50;;;8.80;;
29814;SDS011;16708;50.426;7.664;2023-03-01T11:14:17;14.70;;;8.70;;
29814;SDS011;16708;50.426;7.664;2023-03-01T11:19:12;14.20;;;8.80;;
29814;SDS011;16708;50.426;7.664;2023-03-01T11:24:10;11.50;;;9.00;;
29814;SDS011;16708;50.426;7.664;2023-03-01T11:29:01;12.30;;;8.90;;
29814;SDS011;16708;50.426;7.664;2023-03-01T11:33:58;14.30;;;9.20;;
29814;SDS011;16708;50.426;7.664;2023-03-01T11:38:49;11.40;;;7.90;;
29814;SDS011;16708;50.426;7.664;2023-03-01T11:43:41;11.70;;;8.40;;
29814;SDS011;16708;50.426;7.664;2023-03-01T11:48:36;10.80;;;8.30;;
29814;SDS011;16708;50.426;7.664;2023-03-01T12:18:02;11.30;;;8.00;;
29814;SDS011;16708;50.426;7.664;2023-03-01T12:27:50;9.40;;;7.50;;
29814;SDS011;16708;50.426;7.664;2023-03-01T12:42:33;9.20;;;7.60;;
29814;SDS011;16708;50.426;7.664;2023-03-01T12:47:28;9.20;;;7.10;;
29814;SDS011;16708;50.426;7.664;2023-03-01T12:52:19;11.80;;;7.00;;
29814;SDS011;16708;50.426;7.664;2023-03-01T12:57:14;8.60;;;6.80;;
29814;SDS011;16708;50.426;7.664;2023-03-01T13:11:57;9.40;;;6.40;;
29814;SDS011;16708;50.426;7.664;2023-03-01T13:16:52;8.60;;;6.90;;
29814;SDS011;16708;50.426;7.664;2023-03-01T13:21:46;8.10;;;6.20;;
29814;SDS011;16708;50.426;7.664;2023-03-01T13:26:41;8.40;;;6.40;;
29814;SDS011;16708;50.426;7.664;2023-03-01T13:31:35;10.00;;;6.30;;
29814;SDS011;16708;50.426;7.664;2023-03-01T13:36:29;8.00;;;5.80;;
29814;SDS011;16708;50.426;7.664;2023-03-01T13:41:24;8.70;;;6.60;;
29814;SDS011;16708;50.426;7.664;2023-03-01T13:46:16;7.40;;;6.10;;
29814;SDS011;16708;50.426;7.664;2023-03-01T13:51:11;8.20;;;5.70;;
29814;SDS011;16708;50.426;7.664;2023-03-01T13:56:06;8.40;;;5.70;;
29814;SDS011;16708;50.426;7.664;2023-03-01T14:01:00;7.90;;;5.40;;
29814;SDS011;16708;50.426;7.664;2023-03-01T14:05:54;7.10;;;5.30;;
29814;SDS011;16708;50.426;7.664;2023-03-01T14:10:46;6.90;;;5.60;;
29814;SDS011;16708;50.426;7.664;2023-03-01T14:15:40;7.80;;;5.20;;
29814;SDS011;16708;50.426;7.664;2023-03-01T14:20:34;6.80;;;5.00;;
29814;SDS011;16708;50.426;7.664;2023-03-01T14:25:29;7.50;;;5.00;;
29814;SDS011;16708;50.426;7.664;2023-03-01T14:30:23;11.20;;;5.40;;
29814;SDS011;16708;50.426;7.664;2023-03-01T14:35:17;5.70;;;4.50;;
29814;SDS011;16708;50.426;7.664;2023-03-01T14:40:15;7.90;;;5.00;;
29814;SDS011;16708;50.426;7.664;2023-03-01T14:45:06;6.80;;;4.80;;
29814;SDS011;16708;50.426;7.664;2023-03-01T14:50:00;8.90;;;5.40;;
29814;SDS011;16708;50.426;7.664;2023-03-01T14:54:52;9.00;;;4.90;;
29814;SDS011;16708;50.426;7.664;2023-03-01T14:59:44;8.00;;;5.50;;
29814;SDS011;16708;50.426;7.664;2023-03-01T15:04:39;7.70;;;5.00;;
29814;SDS011;16708;50.426;7.664;2023-03-01T15:09:33;5.60;;;4.50;;
29814;SDS011;16708;50.426;7.664;2023-03-01T15:19:21;7.80;;;5.00;;
29814;SDS011;16708;50.426;7.664;2023-03-01T15:24:14;8.00;;;5.10;;
29814;SDS011;16708;50.426;7.664;2023-03-01T15:29:09;7.90;;;5.50;;
29814;SDS011;16708;50.426;7.664;2023-03-01T15:34:03;8.50;;;5.10;;
29814;SDS011;16708;50.426;7.664;2023-03-01T15:48:45;7.80;;;5.10;;
29814;SDS011;16708;50.426;7.664;2023-03-01T15:53:39;7.30;;;4.90;;
29814;SDS011;16708;50.426;7.664;2023-03-01T15:58:33;8.50;;;5.00;;
29814;SDS011;16708;50.426;7.664;2023-03-01T16:03:27;10.20;;;5.80;;
29814;SDS011;16708;50.426;7.664;2023-03-01T16:08:22;7.40;;;4.90;;
29814;SDS011;16708;50.426;7.664;2023-03-01T16:13:15;9.10;;;6.20;;
29814;SDS011;16708;50.426;7.664;2023-03-01T16:18:09;8.50;;;5.90;;
29814;SDS011;16708;50.426;7.664;2023-03-01T16:23:02;11.30;;;6.50;;
29814;SDS011;16708;50.426;7.664;2023-03-01T16:27:57;9.00;;;5.80;;
29814;SDS011;16708;50.426;7.664;2023-03-01T16:32:50;10.80;;;5.30;;
29814;SDS011;16708;50.426;7.664;2023-03-01T16:37:45;8.30;;;4.90;;
29814;SDS011;16708;50.426;7.664;2023-03-01T16:42:39;9.30;;;4.70;;
29814;SDS011;16708;50.426;7.664;2023-03-01T16:47:32;11.20;;;5.40;;
29814;SDS011;16708;50.426;7.664;2023-03-01T16:52:25;10.00;;;5.00;;
29814;SDS011;16708;50.426;7.664;2023-03-01T16:57:19;7.50;;;4.50;;
29814;SDS011;16708;50.426;7.664;2023-03-01T17:02:12;7.40;;;4.40;;
29814;SDS011;16708;50.426;7.664;2023-03-01T17:07:06;8.60;;;4.70;;
29814;SDS011;16708;50.426;7.664;2023-03-01T17:11:59;8.30;;;4.80;;
29814;SDS011;16708;50.426;7.664;2023-03-01T17:16:53;9.20;;;5.50;;
29814;SDS011;16708;50.426;7.664;2023-03-01T17:21:47;11.10;;;5.40;;
29814;SDS011;16708;50.426;7.664;2023-03-01T17:26:42;10.10;;;4.80;;
29814;SDS011;16708;50.426;7.664;2023-03-01T17:31:36;12.20;;;4.70;;
29814;SDS011;16708;50.426;7.664;2023-03-01T17:36:30;12.10;;;5.30;;
29814;SDS011;16708;50.426;7.664;2023-03-01T17:41:24;12.30;;;5.90;;
29814;SDS011;16708;50.426;7.664;2023-03-01T17:46:21;12.00;;;5.40;;
29814;SDS011;16708;50.426;7.664;2023-03-01T17:51:10;10.60;;;5.10;;
29814;SDS011;16708;50.426;7.664;2023-03-01T17:56:02;9.00;;;4.90;;
29814;SDS011;16708;50.426;7.664;2023-03-01T18:00:56;18.30;;;6.10;;
29814;SDS011;16708;50.426;7.664;2023-03-01T18:05:49;19.20;;;5.10;;
29814;SDS011;16708;50.426;7.664;2023-03-01T18:10:45;30.20;;;8.10;;
29814;SDS011;16708;50.426;7.664;2023-03-01T18:15:38;31.20;;;10.20;;
29814;SDS011;16708;50.426;7.664;2023-03-01T18:20:32;19.50;;;6.90;;
29814;SDS011;16708;50.426;7.664;2023-03-01T18:25:27;13.50;;;5.80;;
29814;SDS011;16708;50.426;7.664;2023-03-01T18:30:21;16.20;;;5.60;;
29814;SDS011;16708;50.426;7.664;2023-03-01T18:35:15;13.70;;;5.00;;
29814;SDS011;16708;50.426;7.664;2023-03-01T18:40:10;15.60;;;5.90;;
29814;SDS011;16708;50.426;7.664;2023-03-01T18:45:02;16.50;;;5.70;;
29814;SDS011;16708;50.426;7.664;2023-03-01T18:49:57;14.10;;;5.20;;
29814;SDS011;16708;50.426;7.664;2023-03-01T18:54:51;16.80;;;5.70;;
29814;SDS011;16708;50.426;7.664;2023-03-01T18:59:45;12.60;;;5.80;;
29814;SDS011;16708;50.426;7.664;2023-03-01T19:04:40;10.00;;;4.80;;
29814;SDS011;16708;50.426;7.664;2023-03-01T19:09:33;15.50;;;5.70;;
29814;SDS011;16708;50.426;7.664;2023-03-01T19:14:28;13.00;;;5.40;;
29814;SDS011;16708;50.426;7.664;2023-03-01T19:19:21;38.70;;;11.60;;
29814;SDS011;16708;50.426;7.664;2023-03-01T19:24:15;15.50;;;5.50;;
29814;SDS011;16708;50.426;7.664;2023-03-01T19:29:09;16.10;;;6.00;;
29814;SDS011;16708;50.426;7.664;2023-03-01T19:34:03;12.00;;;5.00;;
29814;SDS011;16708;50.426;7.664;2023-03-01T19:38:57;10.00;;;4.80;;
29814;SDS011;16708;50.426;7.664;2023-03-01T19:43:51;12.30;;;5.10;;
29814;SDS011;16708;50.426;7.664;2023-03-01T19:48:46;12.60;;;5.00;;
29814;SDS011;16708;50.426;7.664;2023-03-01T19:53:40;13.10;;;5.60;;
29814;SDS011;16708;50.426;7.664;2023-03-01T19:58:35;10.60;;;4.80;;
29814;SDS011;16708;50.426;7.664;2023-03-01T20:03:28;10.50;;;4.70;;
29814;SDS011;16708;50.426;7.664;2023-03-01T20:08:22;10.60;;;4.60;;
29814;SDS011;16708;50.426;7.664;2023-03-01T20:13:14;8.70;;;4.40;;
29814;SDS011;16708;50.426;7.664;2023-03-01T20:18:08;10.40;;;4.50;;
29814;SDS011;16708;50.426;7.664;2023-03-01T20:23:02;9.30;;;4.60;;
29814;SDS011;16708;50.426;7.664;2023-03-01T20:27:56;10.50;;;4.20;;
29814;SDS011;16708;50.426;7.664;2023-03-01T20:32:50;11.60;;;4.90;;
29814;SDS011;16708;50.426;7.664;2023-03-01T20:37:44;10.40;;;4.90;;
29814;SDS011;16708;50.426;7.664;2023-03-01T20:42:37;9.90;;;4.30;;
29814;SDS011;16708;50.426;7.664;2023-03-01T20:47:31;9.30;;;4.50;;
29814;SDS011;16708;50.426;7.664;2023-03-01T20:52:25;11.10;;;5.10;;
29814;SDS011;16708;50.426;7.664;2023-03-01T20:57:19;10.10;;;4.70;;
29814;SDS011;16708;50.426;7.664;2023-03-01T21:02:12;13.60;;;5.20;;
29814;SDS011;16708;50.426;7.664;2023-03-01T21:07:06;13.20;;;4.80;;
29814;SDS011;16708;50.426;7.664;2023-03-01T21:12:00;10.60;;;4.90;;
29814;SDS011;16708;50.426;7.664;2023-03-01T21:16:54;11.30;;;4.20;;
29814;SDS011;16708;50.426;7.664;2023-03-01T21:21:48;10.70;;;4.90;;
29814;SDS011;16708;50.426;7.664;2023-03-01T21:26:41;13.60;;;4.60;;
29814;SDS011;16708;50.426;7.664;2023-03-01T21:31:36;9.00;;;4.70;;
29814;SDS011;16708;50.426;7.664;2023-03-01T21:36:30;11.30;;;4.50;;
29814;SDS011;16708;50.426;7.664;2023-03-01T21:41:24;10.90;;;4.80;;
29814;SDS011;16708;50.426;7.664;2023-03-01T21:46:19;10.80;;;4.30;;
29814;SDS011;16708;50.426;7.664;2023-03-01T21:51:13;12.00;;;5.20;;
29814;SDS011;16708;50.426;7.664;2023-03-01T21:56:07;11.70;;;5.00;;
29814;SDS011;16708;50.426;7.664;2023-03-01T22:00:59;11.70;;;4.90;;
29814;SDS011;16708;50.426;7.664;2023-03-01T22:05:53;11.30;;;4.80;;
29814;SDS011;16708;50.426;7.664;2023-03-01T22:10:47;11.80;;;4.90;;
29814;SDS011;16708;50.426;7.664;2023-03-01T22:15:41;9.90;;;4.60;;
29814;SDS011;16708;50.426;7.664;2023-03-01T22:20:35;11.20;;;4.90;;
29814;SDS011;16708;50.426;7.664;2023-03-01T22:25:30;10.20;;;4.70;;
29814;SDS011;16708;50.426;7.664;2023-03-01T22:30:24;10.50;;;4.80;;
29814;SDS011;16708;50.426;7.664;2023-03-01T22:35:18;15.00;;;5.00;;
29814;SDS011;16708;50.426;7.664;2023-03-01T22:40:12;11.90;;;5.40;;
29814;SDS011;16708;50.426;7.664;2023-03-01T22:45:06;10.60;;;4.70;;
29814;SDS011;16708;50.426;7.664;2023-03-01T22:50:01;12.10;;;5.30;;
29814;SDS011;16708;50.426;7.664;2023-03-01T22:54:55;12.60;;;4.90;;
29814;SDS011;16708;50.426;7.664;2023-03-01T22:59:48;14.60;;;5.80;;
29814;SDS011;16708;50.426;7.664;2023-03-01T23:04:43;12.90;;;5.60;;
29814;SDS011;16708;50.426;7.664;2023-03-01T23:09:37;14.20;;;5.70;;
29814;SDS011;16708;50.426;7.664;2023-03-01T23:14:31;12.50;;;5.20;;
29814;SDS011;16708;50.426;7.664;2023-03-01T23:19:25;13.50;;;5.60;;
29814;SDS011;16708;50.426;7.664;2023-03-01T23:24:19;14.20;;;5.20;;
29814;SDS011;16708;50.426;7.664;2023-03-01T23:29:14;13.00;;;5.60;;
29814;SDS011;16708;50.426;7.664;2023-03-01T23:34:08;13.70;;;5.50;;
29814;SDS011;16708;50.426;7.664;2023-03-01T23:39:00;12.10;;;5.40;;
29814;SDS011;16708;50.426;7.664;2023-03-01T23:43:54;14.80;;;5.80;;
29814;SDS011;16708;50.426;7.664;2023-03-01T23:48:48;14.60;;;6.20;;
29814;SDS011;16708;50.426;7.664;2023-03-01T23:53:42;15.90;;;5.60;;
29814;SDS011;16708;50.426;7.664;2023-03-01T23:58:37;14.60;;;5.50;;
